Nederlandse vliegveldverwachtingen (TAF)

Luchtvaartmeteorologische informatie voor operationeel gebruik en vluchtvoorbereiding is beschikbaar op www.luchtvaartmeteo.nl.

ZCZC
FC062100 EHGR     GILZE-RIJEN/GILZE-RIJEN   NLD   14 m.
TAF EHGR 062100Z NIL=

ZCZC
FC062100 EHKD     DE KOOY/DE KOOY   NLD   1 m.
TAF EHKD 062100Z NIL=

ZCZC
FC062100 EHLW     LEEUWARDEN/LEEUWARDEN   NLD   1 m.
TAF EHLW 062033Z 0621/0709 20003KT 3000 BR BKN025
    BECMG 0700/0703 VRB02KT 0500 FG
    BECMG 0706/0709 9999 NSW
    PROB40 TEMPO 0707/0709 SCT008=

ZCZC
FC062100 EHVK     VOLKEL/VOLKEL   NLD   21 m.
TAF EHVK 062023Z 0621/0709 28005KT CAVOK
    BECMG 0622/0701 2500 BR MIFG
    BECMG 0700/0703 VRB02KT 0800 FG
    PROB40 0701/0706 2500 BCFG
    BECMG 0706/0709 10007KT 9999 NSW
    TEMPO 0707/0709 SCT005=

ZCZC
FC062100 EHWO     WOENSDRECHT/WOENSDRECHT   NLD   19 m.
TAF EHWO 062100Z NIL=

ZCZC
FT062300 EHAM     AMSTERDAM/SCHIPHOL   NLD   -3 m.
TAF COR EHAM 062258Z 0700/0806 26004KT CAVOK
    BECMG 0700/0703 VRB03KT 4000 MIFG BR NSC
    PROB30 0703/0707 1400 BCFG
    BECMG 0706/0709 10007KT CAVOK=

ZCZC
FT062300 EHBK     MAASTRICHT/MAASTRICHT-AACHEN   NLD   114 m.
TAF EHBK 062315Z 0700/0806 24004KT CAVOK
    PROB30 0703/0707 7000=

ZCZC
FT062300 EHGG     GRONINGEN/EELDE   NLD   5 m.
TAF EHGG 062315Z 0700/0806 26004KT 2500 MIFG BR FEW004
    BECMG 0700/0702 1000 BCFG
    PROB40 0700/0708 0300 FG VV001
    BECMG 0707/0710 CAVOK=

ZCZC
FT062300 EHLE     LELYSTAD/LELYSTAD   NLD   -3 m.
TAF COR EHLE 062257Z 0700/0806 26012KT CAVOK
    BECMG 0700/0703 VRB03KT 3000 MIFG BR NSC
    PROB30 0703/0708 0600 BCFG
    BECMG 0707/0710 10007KT CAVOK=

ZCZC
FT062300 EHRD     ROTTERDAM/THE HAGUE AIRPORT   NLD   -5 m.
TAF COR EHRD 062259Z 0700/0806 25004KT CAVOK
    BECMG 0700/0703 VRB03KT 4000 MIFG BR NSC
    PROB30 0703/0707 1400 BCFG
    BECMG 0706/0709 10007KT CAVOK=

ZCZC
FT062300 EHEH     EINDHOVEN/EINDHOVEN   NLD   22 m.
TAF EHEH 062326Z 0700/0806 VRB03KT CAVOK
    BECMG 0701/0704 2500 BR MIFG SCT060
    PROB40 0703/0707 0500 BCFG
    BECMG 0706/0708 10007KT 6000 SCT004
    BECMG 0708/0710 9999 NSW FEW025 SCT250=

07/04/2020 02.15 uur LT